< Typhoon 200306 2003 Season Typhoon 200308 >
Typhoon 200307 (IMBUDO)
General InformationTrack Information on Google MapsDetailed Wind InformationList of All Images || NewsDisaster Info.WeblogResourceGoogle EarthGE AnimationAtom FeedGeoJSON
Detalied Best Track (Time Zone = UTC)
Year Month Day Hour Lat. Long. Pressure (hPa) Wind (kt) Class Image Chart
2003 7 15 00 4.8 150.4 1008 0 2 Image Chart
2003 7 15 06 5.9 149.8 1006 0 2 Image Chart
2003 7 15 12 6.2 148.3 1006 0 2 Image Chart
2003 7 15 18 6.1 146.8 1004 0 2 Image Chart
2003 7 16 00 6.0 145.6 1004 0 2 Image Chart
2003 7 16 06 5.7 143.8 1004 0 2 Image Chart
2003 7 16 12 6.1 142.8 1004 0 2 Image Chart
2003 7 16 18 7.3 142.2 1002 0 2 Image Chart
2003 7 17 00 7.3 141.7 1002 0 2 Image Chart
2003 7 17 06 8.3 140.9 998 35 3 Image Chart
2003 7 17 12 8.8 140.1 998 35 3 Image Chart
2003 7 17 18 9.2 139.5 998 35 3 Image Chart
2003 7 18 00 9.7 138.2 996 40 3 Image Chart
2003 7 18 06 10.0 137.3 994 40 3 Image Chart
2003 7 18 12 10.3 137.2 990 45 3 Image Chart
2003 7 18 18 10.6 136.5 985 50 4 Image Chart
2003 7 19 00 10.6 135.5 980 55 4 Image Chart
2003 7 19 06 10.5 134.7 975 60 4 Image Chart
2003 7 19 12 10.5 134.2 975 60 4 Image Chart
2003 7 19 18 10.9 133.3 970 65 5 Image Chart
2003 7 20 00 11.6 132.9 960 75 5 Image Chart
2003 7 20 06 12.1 131.6 945 85 5 Image Chart
2003 7 20 12 12.5 130.7 935 90 5 Image Chart
2003 7 20 18 13.3 129.6 935 90 5 Image Chart
2003 7 21 00 13.5 128.1 945 85 5 Image Chart
2003 7 21 06 14.0 127.1 945 85 5 Image Chart
2003 7 21 12 15.0 125.9 945 85 5 Image Chart
2003 7 21 18 15.8 124.5 950 80 5 Image Chart
2003 7 22 00 16.3 123.0 950 80 5 Image Chart
2003 7 22 06 16.9 121.3 955 75 5 Image Chart
2003 7 22 12 17.8 119.6 960 70 5 Image Chart
2003 7 22 18 18.1 118.4 965 70 5 Image Chart
2003 7 23 00 18.2 116.7 960 70 5 Image Chart
2003 7 23 06 18.7 115.2 955 75 5 Image Chart
2003 7 23 12 19.5 114.1 955 75 5 Image Chart
2003 7 23 18 20.0 112.8 955 75 5 Image Chart
2003 7 24 00 21.1 112.0 965 65 5 Image Chart
2003 7 24 06 22.1 110.1 975 50 4 Image Chart
2003 7 24 12 22.8 108.5 985 40 3 Image Chart
2003 7 24 18 23.5 107.2 992 35 3 Image Chart
2003 7 25 00 23.0 106.0 996 0 2 Image Chart
2003 7 25 06 23.1 105.0 996 0 2 Image Chart
2003 7 25 12 23.5 104.4 998 0 2 Image Chart
Japan Meteorological Agency Best Track Data | Correction Date : 2004-02-17
< Typhoon 200306 2003 Season Typhoon 200308 >

Help